KMLJ Airport (Baldwin County Rgnl) Information

FAA: MLJ - ICAO: KMLJ

KMLJ Airport Location

State Georgia
County Baldwin
City Milledgeville
KMLJ Airport is 4 miles north of Milledgeville, GA.
Latitude 33-09-15.2140N
Longitude 083-14-29.0500W
Elevation 384ft

KMLJ Airport METARs

METAR KMLJ 240855Z AUTO 00000KT 10SM 13/12 A3007 RMK AO2
Altimeter 30.07"
Temperature 13.0°C (55.4°F)
Wind 0° at 0KT
Clouds at 0ft
Visibility 10.0mi
Time observed: 2021-09-24T08:55:00Z

KMLJ Airport Details

Status Operational
Activation July 1959
Ownership Public
Usage Public
Chart ATLANTA
ATC on-site No
Beacon schedule sunset-sunrise
Beacon color clear green

KMLJ Airport Contacts

Owner BALDWIN COUNTY
Owner address 121 N. WILKINSON STREET, SUITE 314, MILLEDGEVILLE, GA 31061
Owner phone 478-445-4791
Manager RONNIE WILLIAMS
Manager address CANDLER COUNTY HOSP, P.O. BOX 597, METTER, GA 30439
Manager phone N/A

KMLJ Airport (Baldwin County Rgnl) Radio Frequencies

KMLJ (Airport) Radio Frequencies

UNICOM 122.975
Common traffic advisory frequency (CTAF) 122.975